Terminal Aerodrome Forecast
Issued by NWS Lake Charles, LA

Home | Current Version | Previous Version | Text Only | Print | Product List | Glossary On
Versions: 1 2 3 4 5 6 7 8 9 10 11 12 13 14 15 16 17
000
FTUS44 KLCH 281731
TAFLFT
TAF
KLFT 281731Z 2818/2918 17014G22KT P6SM OVC015
     FM282000 17016G24KT P6SM OVC020
     FM290300 17010G16KT P6SM OVC015
      TEMPO 2909/2913 BKN009 OVC015
     FM291400 16016G24KT P6SM OVC018=

USA.gov is the U.S. government's official web portal to all federal, state and local government web resources and services.